D/T METAR WX W/DIR W/SPE G/SPE TEMP DEWP
23/05/19 13:30 EINN 231230Z 22006KT 9999 FEW010 SCT017 BKN029 15/12 Q1016 NOSIG SW (220°) 6.9mph 15°C 12°C
23/05/19 13:00 EINN 231200Z 20005KT 170V250 9999 FEW010 SCT024 BKN035 14/12 Q1016 NOSIG SSW (200°) 5.8mph 14°C 12°C
23/05/19 12:30 EINN 231130Z 21005KT 190V250 9999 -RA FEW008 SCT015 BKN020 14/12 Q1016 NOSIG -RA SSW (210°) 5.8mph 14°C 12°C
23/05/19 12:00 EINN 231100Z 21005KT 9999 -RA FEW011 BKN020 14/12 Q1016 NOSIG -RA SSW (210°) 5.8mph 14°C 12°C
23/05/19 11:30 EINN 231030Z 19004KT 150V250 9999 -RA FEW010 SCT014 BKN019 14/11 Q1016 NOSIG -RA S (190°) 4.6mph 14°C 11°C
23/05/19 11:00 EINN 231000Z 19005KT 160V230 9999 -RA FEW009 SCT012 BKN020 14/11 Q1016 NOSIG -RA S (190°) 5.8mph 14°C 11°C
23/05/19 10:30 EINN 230930Z 14004KT 100V190 9999 -RA FEW007 SCT010 BKN021 13/11 Q1016 NOSIG -RA SE (140°) 4.6mph 13°C 11°C
23/05/19 10:00 EINN 230900Z 14004KT 9999 -RA FEW007 SCT012 OVC024 13/11 Q1016 NOSIG -RA SE (140°) 4.6mph 13°C 11°C
23/05/19 09:30 EINN 230830Z 12004KT 090V180 9000 -RA FEW007 SCT018 OVC026 12/11 Q1016 NOSIG -RA ESE (120°) 4.6mph 12°C 11°C
23/05/19 09:00 EINN 230800Z 14004KT 9999 -RA FEW014 SCT026 OVC042 12/11 Q1016 NOSIG -RA SE (140°) 4.6mph 12°C 11°C
23/05/19 08:30 EINN 230730Z 16003KT 9999 -RA FEW014 SCT029 OVC042 12/11 Q1016 NOSIG -RA SSE (160°) 3.5mph 12°C 11°C
23/05/19 08:00 EINN 230700Z 20002KT 9999 -RA FEW014 OVC025 12/11 Q1016 NOSIG -RA SSW (200°) 2.3mph 12°C 11°C
23/05/19 07:30 EINN 230630Z 20003KT 9000 -RA FEW015 OVC034 12/10 Q1016 NOSIG -RA SSW (200°) 3.5mph 12°C 10°C
23/05/19 07:00 EINN 230600Z 21004KT 9000 -RA SCT015 BKN050 11/10 Q1016 NOSIG -RA SSW (210°) 4.6mph 11°C 10°C
23/05/19 06:30 EINN 230530Z 20004KT 9000 -RA SCT015 BKN050 11/10 Q1016 NOSIG -RA SSW (200°) 4.6mph 11°C 10°C
23/05/19 06:00 EINN 230500Z 21003KT 9000 -RA FEW020 BKN050 12/09 Q1016 NOSIG -RA SSW (210°) 3.5mph 12°C 9°C
23/05/19 05:30 EINN 230430Z 20001KT 9999 FEW025 BKN060 12/09 Q1016 NOSIG SSW (200°) 1.2mph 12°C 9°C
23/05/19 05:00 EINN 230400Z 20003KT 9999 FEW025 BKN060 12/09 Q1016 NOSIG SSW (200°) 3.5mph 12°C 9°C
23/05/19 04:30 EINN 230330Z 20004KT 9999 FEW025 BKN050 12/09 Q1016 NOSIG SSW (200°) 4.6mph 12°C 9°C
23/05/19 04:00 EINN 230300Z 25002KT 9999 FEW025 BKN050 12/09 Q1016 NOSIG WSW (250°) 2.3mph 12°C 9°C
23/05/19 03:30 EINN 230230Z 27001KT 9999 FEW025 BKN040 12/09 Q1016 NOSIG W (270°) 1.2mph 12°C 9°C
23/05/19 03:00 EINN 230200Z 21003KT 9999 FEW025 BKN040 12/09 Q1016 NOSIG SSW (210°) 3.5mph 12°C 9°C
23/05/19 02:30 EINN 230130Z 22002KT 9999 FEW025 BKN050 11/08 Q1016 NOSIG SW (220°) 2.3mph 11°C 8°C
23/05/19 02:00 EINN 230100Z 21002KT 9999 FEW025 BKN050 12/08 Q1016 NOSIG SSW (210°) 2.3mph 12°C 8°C
23/05/19 01:30 EINN 230030Z 25001K 9999 FEW025 BKN050 12/08 Q1016 NOSIG N (0°) 12°C 8°C
23/05/19 01:00 EINN 230000Z 36001KT 9999 FEW025 BKN050 12/08 Q1016 NOSIG N (360°) 1.2mph 12°C 8°C
23/05/19 00:30 EINN 222330Z 33004KT 9999 FEW025 BKN050 13/08 Q1017 NOSIG NNW (330°) 4.6mph 13°C 8°C
23/05/19 00:00 EINN 222300Z 31003KT 9999 FEW025 BKN050 13/08 Q1017 NOSIG NW (310°) 3.5mph 13°C 8°C
22/05/19 23:30 EINN 222230Z 31003KT 9999 FEW025 BKN050 13/08 Q1017 NOSIG NW (310°) 3.5mph 13°C 8°C
22/05/19 23:00 EINN 222200Z 32003KT 9999 FEW025 BKN050 13/08 Q1017 NOSIG NW (320°) 3.5mph 13°C 8°C
22/05/19 22:30 EINN 222130Z 30003KT 9999 FEW025 BKN050 13/08 Q1017 NOSIG WNW (300°) 3.5mph 13°C 8°C
22/05/19 22:00 EINN 222100Z 33002KT 9999 FEW036 BKN050 14/09 Q1017 NOSIG NNW (330°) 2.3mph 14°C 9°C
22/05/19 21:30 EINN 222030Z 27003KT 9999 FEW036 BKN050 14/08 Q1017 NOSIG W (270°) 3.5mph 14°C 8°C
22/05/19 21:00 EINN 222000Z 26003KT 9999 FEW030 BKN050 14/08 Q1017 NOSIG W (260°) 3.5mph 14°C 8°C
22/05/19 20:30 EINN 221930Z 24004KT 9999 FEW030 BKN050 15/09 Q1017 NOSIG WSW (240°) 4.6mph 15°C 9°C
22/05/19 20:00 EINN 221900Z 25005KT 9999 FEW032 BKN050 15/09 Q1017 NOSIG WSW (250°) 5.8mph 15°C 9°C
22/05/19 19:30 EINN 221830Z 25008KT CAVOK 15/09 Q1017 NOSIG WSW (250°) 9.2mph 15°C 9°C
22/05/19 19:00 EINN 221800Z 20007KT CAVOK 16/09 Q1017 NOSIG SSW (200°) 8.1mph 16°C 9°C
22/05/19 18:30 EINN 221730Z 20009KT 9999 FEW025 BKN060 16/08 Q1017 NOSIG SSW (200°) 10.4mph 16°C 8°C
22/05/19 18:00 EINN 221700Z 19009KT CAVOK 16/09 Q1017 NOSIG S (190°) 10.4mph 16°C 9°C
22/05/19 17:30 EINN 221630Z 20010KT CAVOK 16/08 Q1017 NOSIG SSW (200°) 11.5mph 16°C 8°C
22/05/19 17:00 EINN 221600Z 20010KT 9999 FEW030 BKN048 16/08 Q1018 NOSIG SSW (200°) 11.5mph 16°C 8°C
22/05/19 16:30 EINN 221530Z 20011KT 9999 FEW030 BKN048 16/07 Q1017 NOSIG SSW (200°) 12.7mph 16°C 7°C
22/05/19 16:00 EINN 221500Z 14007KT 9999 FEW030 BKN050 18/06 Q1017 NOSIG SE (140°) 8.1mph 18°C 6°C
22/05/19 15:30 EINN 221430Z 17006KT 110V230 9999 FEW032 SCT050 18/05 Q1018 NOSIG S (170°) 6.9mph 18°C 5°C
22/05/19 15:00 EINN 221400Z 18005KT 110V240 9999 FEW032 SCT200 18/06 Q1018 NOSIG S (180°) 5.8mph 18°C 6°C
22/05/19 14:30 EINN 221330Z 13006KT 080V170 9999 FEW030 SCT200 18/06 Q1018 NOSIG SE (130°) 6.9mph 18°C 6°C
22/05/19 14:00 EINN 221300Z 12004KT 080V210 9999 FEW045 SCT200 18/06 Q1018 NOSIG ESE (120°) 4.6mph 18°C 6°C